sensor_id;sensor_type;location;lat;lon;timestamp;temperature;humidity
43320;DHT22;28914;48.722;9.332;2022-11-15T00:01:54;8.90;93.10
43320;DHT22;28914;48.722;9.332;2022-11-15T00:07:13;9.00;93.10
43320;DHT22;28914;48.722;9.332;2022-11-15T00:12:33;9.00;93.10
43320;DHT22;28914;48.722;9.332;2022-11-15T00:17:52;9.20;93.20
43320;DHT22;28914;48.722;9.332;2022-11-15T00:23:11;9.20;93.20
43320;DHT22;28914;48.722;9.332;2022-11-15T00:28:30;9.30;93.10
43320;DHT22;28914;48.722;9.332;2022-11-15T00:33:50;9.30;93.00
43320;DHT22;28914;48.722;9.332;2022-11-15T00:39:09;9.40;92.90
43320;DHT22;28914;48.722;9.332;2022-11-15T00:44:28;9.40;93.20
43320;DHT22;28914;48.722;9.332;2022-11-15T00:49:47;9.40;92.80
43320;DHT22;28914;48.722;9.332;2022-11-15T00:55:07;9.40;92.70
43320;DHT22;28914;48.722;9.332;2022-11-15T01:00:26;9.40;92.70
43320;DHT22;28914;48.722;9.332;2022-11-15T01:05:46;9.40;92.60
43320;DHT22;28914;48.722;9.332;2022-11-15T01:11:08;9.30;92.30
43320;DHT22;28914;48.722;9.332;2022-11-15T01:16:28;9.20;92.20
43320;DHT22;28914;48.722;9.332;2022-11-15T01:21:49;9.10;92.10
43320;DHT22;28914;48.722;9.332;2022-11-15T01:27:09;9.00;92.00
43320;DHT22;28914;48.722;9.332;2022-11-15T01:32:28;9.00;92.00
43320;DHT22;28914;48.722;9.332;2022-11-15T01:37:47;8.80;91.90
43320;DHT22;28914;48.722;9.332;2022-11-15T01:48:44;8.60;91.90
43320;DHT22;28914;48.722;9.332;2022-11-15T01:54:09;8.50;91.90
43320;DHT22;28914;48.722;9.332;2022-11-15T01:59:31;8.40;91.90
43320;DHT22;28914;48.722;9.332;2022-11-15T02:04:50;8.30;91.90
43320;DHT22;28914;48.722;9.332;2022-11-15T02:10:21;8.20;91.90
43320;DHT22;28914;48.722;9.332;2022-11-15T02:21:48;8.00;92.00
43320;DHT22;28914;48.722;9.332;2022-11-15T02:27:38;7.90;92.00
43320;DHT22;28914;48.722;9.332;2022-11-15T02:33:07;7.80;92.50
43320;DHT22;28914;48.722;9.332;2022-11-15T02:38:44;7.70;92.10
43320;DHT22;28914;48.722;9.332;2022-11-15T02:44:21;7.70;92.10
43320;DHT22;28914;48.722;9.332;2022-11-15T02:49:51;7.60;92.10
43320;DHT22;28914;48.722;9.332;2022-11-15T02:55:34;7.60;92.10
43320;DHT22;28914;48.722;9.332;2022-11-15T03:01:04;7.50;92.10
43320;DHT22;28914;48.722;9.332;2022-11-15T03:06:42;7.40;92.20
43320;DHT22;28914;48.722;9.332;2022-11-15T03:18:04;7.40;92.70
43320;DHT22;28914;48.722;9.332;2022-11-15T03:23:26;7.40;92.90
43320;DHT22;28914;48.722;9.332;2022-11-15T03:28:53;7.50;93.00
43320;DHT22;28914;48.722;9.332;2022-11-15T03:34:41;7.50;93.10
43320;DHT22;28914;48.722;9.332;2022-11-15T03:40:03;7.60;93.10
43320;DHT22;28914;48.722;9.332;2022-11-15T03:45:29;7.60;93.00
43320;DHT22;28914;48.722;9.332;2022-11-15T03:50:51;7.60;93.00
43320;DHT22;28914;48.722;9.332;2022-11-15T03:56:11;7.70;93.00
43320;DHT22;28914;48.722;9.332;2022-11-15T04:01:30;7.70;93.00
43320;DHT22;28914;48.722;9.332;2022-11-15T04:06:49;7.70;93.00
43320;DHT22;28914;48.722;9.332;2022-11-15T04:12:08;7.80;93.10
43320;DHT22;28914;48.722;9.332;2022-11-15T04:17:28;7.80;93.00
43320;DHT22;28914;48.722;9.332;2022-11-15T04:22:47;7.80;92.90
43320;DHT22;28914;48.722;9.332;2022-11-15T04:28:25;7.80;93.10
43320;DHT22;28914;48.722;9.332;2022-11-15T04:33:44;7.70;92.60
43320;DHT22;28914;48.722;9.332;2022-11-15T04:39:04;7.70;92.50
43320;DHT22;28914;48.722;9.332;2022-11-15T04:44:23;7.70;92.50
43320;DHT22;28914;48.722;9.332;2022-11-15T04:49:42;7.60;92.50
43320;DHT22;28914;48.722;9.332;2022-11-15T04:55:03;7.50;92.40
43320;DHT22;28914;48.722;9.332;2022-11-15T05:00:22;7.50;92.50
43320;DHT22;28914;48.722;9.332;2022-11-15T05:05:41;7.40;92.50
43320;DHT22;28914;48.722;9.332;2022-11-15T05:11:00;7.40;92.50
43320;DHT22;28914;48.722;9.332;2022-11-15T05:16:20;7.40;92.50
43320;DHT22;28914;48.722;9.332;2022-11-15T05:21:39;7.30;92.50
43320;DHT22;28914;48.722;9.332;2022-11-15T05:26:59;7.30;92.60
43320;DHT22;28914;48.722;9.332;2022-11-15T05:32:18;7.20;92.70
43320;DHT22;28914;48.722;9.332;2022-11-15T05:37:37;7.20;92.80
43320;DHT22;28914;48.722;9.332;2022-11-15T05:42:57;7.20;92.90
43320;DHT22;28914;48.722;9.332;2022-11-15T05:48:17;7.20;93.00
43320;DHT22;28914;48.722;9.332;2022-11-15T05:53:37;7.20;93.00
43320;DHT22;28914;48.722;9.332;2022-11-15T05:58:57;7.20;92.90
43320;DHT22;28914;48.722;9.332;2022-11-15T06:04:16;7.30;92.90
43320;DHT22;28914;48.722;9.332;2022-11-15T06:09:36;7.20;92.80
43320;DHT22;28914;48.722;9.332;2022-11-15T06:14:55;7.20;92.80
43320;DHT22;28914;48.722;9.332;2022-11-15T06:20:14;7.20;92.80
43320;DHT22;28914;48.722;9.332;2022-11-15T06:25:34;7.10;92.70
43320;DHT22;28914;48.722;9.332;2022-11-15T06:30:53;7.10;92.70
43320;DHT22;28914;48.722;9.332;2022-11-15T06:36:12;7.00;92.70
43320;DHT22;28914;48.722;9.332;2022-11-15T06:41:36;7.00;92.80
43320;DHT22;28914;48.722;9.332;2022-11-15T06:46:55;7.00;92.80
43320;DHT22;28914;48.722;9.332;2022-11-15T06:52:14;7.00;92.80
43320;DHT22;28914;48.722;9.332;2022-11-15T06:57:33;6.90;92.80
43320;DHT22;28914;48.722;9.332;2022-11-15T07:02:52;6.90;92.90
43320;DHT22;28914;48.722;9.332;2022-11-15T07:08:11;7.00;93.00
43320;DHT22;28914;48.722;9.332;2022-11-15T07:13:32;7.00;93.10
43320;DHT22;28914;48.722;9.332;2022-11-15T07:18:55;7.00;93.20
43320;DHT22;28914;48.722;9.332;2022-11-15T07:24:14;7.10;93.30
43320;DHT22;28914;48.722;9.332;2022-11-15T07:29:33;7.20;93.50
43320;DHT22;28914;48.722;9.332;2022-11-15T07:34:52;7.30;93.70
43320;DHT22;28914;48.722;9.332;2022-11-15T07:40:12;7.50;93.90
43320;DHT22;28914;48.722;9.332;2022-11-15T07:45:31;7.60;94.00
43320;DHT22;28914;48.722;9.332;2022-11-15T07:50:52;7.80;94.00
43320;DHT22;28914;48.722;9.332;2022-11-15T07:56:12;8.00;94.20
43320;DHT22;28914;48.722;9.332;2022-11-15T08:01:30;8.20;94.80
43320;DHT22;28914;48.722;9.332;2022-11-15T08:06:50;8.60;95.20
43320;DHT22;28914;48.722;9.332;2022-11-15T08:12:09;9.10;95.40
43320;DHT22;28914;48.722;9.332;2022-11-15T08:17:28;9.50;95.10
43320;DHT22;28914;48.722;9.332;2022-11-15T08:22:51;10.00;94.80
43320;DHT22;28914;48.722;9.332;2022-11-15T08:28:11;10.30;94.40
43320;DHT22;28914;48.722;9.332;2022-11-15T08:33:31;10.70;94.30
43320;DHT22;28914;48.722;9.332;2022-11-15T08:38:51;11.10;94.20
43320;DHT22;28914;48.722;9.332;2022-11-15T08:44:10;11.60;93.70
43320;DHT22;28914;48.722;9.332;2022-11-15T08:49:30;11.90;93.20
43320;DHT22;28914;48.722;9.332;2022-11-15T08:54:48;12.20;92.50
43320;DHT22;28914;48.722;9.332;2022-11-15T09:00:08;12.30;92.10
43320;DHT22;28914;48.722;9.332;2022-11-15T09:05:27;12.50;91.80
43320;DHT22;28914;48.722;9.332;2022-11-15T09:10:46;12.60;91.40
43320;DHT22;28914;48.722;9.332;2022-11-15T09:16:06;12.80;90.90
43320;DHT22;28914;48.722;9.332;2022-11-15T09:21:25;13.00;91.20
43320;DHT22;28914;48.722;9.332;2022-11-15T09:26:45;13.20;91.40
43320;DHT22;28914;48.722;9.332;2022-11-15T09:32:04;13.70;92.60
43320;DHT22;28914;48.722;9.332;2022-11-15T09:37:23;14.60;92.60
43320;DHT22;28914;48.722;9.332;2022-11-15T09:43:03;15.40;91.60
43320;DHT22;28914;48.722;9.332;2022-11-15T09:48:37;16.20;91.60
43320;DHT22;28914;48.722;9.332;2022-11-15T09:54:30;17.70;91.00
43320;DHT22;28914;48.722;9.332;2022-11-15T10:00:21;19.60;90.80
43320;DHT22;28914;48.722;9.332;2022-11-15T10:05:47;21.70;87.00
43320;DHT22;28914;48.722;9.332;2022-11-15T10:11:09;23.30;79.60
43320;DHT22;28914;48.722;9.332;2022-11-15T10:27:39;23.90;65.10
43320;DHT22;28914;48.722;9.332;2022-11-15T10:44:10;23.10;64.10
43320;DHT22;28914;48.722;9.332;2022-11-15T10:49:31;22.60;64.90
43320;DHT22;28914;48.722;9.332;2022-11-15T10:54:59;22.00;65.10
43320;DHT22;28914;48.722;9.332;2022-11-15T11:05:40;21.10;66.50
43320;DHT22;28914;48.722;9.332;2022-11-15T11:11:01;20.70;66.90
43320;DHT22;28914;48.722;9.332;2022-11-15T11:16:46;20.40;67.20
43320;DHT22;28914;48.722;9.332;2022-11-15T11:33:20;19.40;70.50
43320;DHT22;28914;48.722;9.332;2022-11-15T11:44:11;19.00;71.40
43320;DHT22;28914;48.722;9.332;2022-11-15T11:55:15;18.80;72.20
43320;DHT22;28914;48.722;9.332;2022-11-15T12:01:02;18.70;71.80
43320;DHT22;28914;48.722;9.332;2022-11-15T12:12:09;18.60;70.70
43320;DHT22;28914;48.722;9.332;2022-11-15T12:17:30;18.60;69.50
43320;DHT22;28914;48.722;9.332;2022-11-15T12:23:10;18.60;69.90
43320;DHT22;28914;48.722;9.332;2022-11-15T12:28:43;18.60;70.40
43320;DHT22;28914;48.722;9.332;2022-11-15T12:34:38;18.60;69.80
43320;DHT22;28914;48.722;9.332;2022-11-15T12:45:40;18.40;70.90
43320;DHT22;28914;48.722;9.332;2022-11-15T12:50:59;18.30;71.40
43320;DHT22;28914;48.722;9.332;2022-11-15T12:56:21;18.30;71.60
43320;DHT22;28914;48.722;9.332;2022-11-15T13:07:03;18.10;71.90
43320;DHT22;28914;48.722;9.332;2022-11-15T13:17:49;17.90;71.00
43320;DHT22;28914;48.722;9.332;2022-11-15T13:23:12;17.80;70.60
43320;DHT22;28914;48.722;9.332;2022-11-15T13:28:38;17.60;70.60
43320;DHT22;28914;48.722;9.332;2022-11-15T13:34:03;17.50;70.70
43320;DHT22;28914;48.722;9.332;2022-11-15T13:39:34;17.40;71.40
43320;DHT22;28914;48.722;9.332;2022-11-15T13:45:00;17.40;72.20
43320;DHT22;28914;48.722;9.332;2022-11-15T13:50:23;17.40;72.80
43320;DHT22;28914;48.722;9.332;2022-11-15T13:55:43;17.50;72.30
43320;DHT22;28914;48.722;9.332;2022-11-15T14:01:06;17.50;72.40
43320;DHT22;28914;48.722;9.332;2022-11-15T14:06:29;17.50;73.50
43320;DHT22;28914;48.722;9.332;2022-11-15T14:11:53;17.50;74.30
43320;DHT22;28914;48.722;9.332;2022-11-15T14:22:56;17.50;75.30
43320;DHT22;28914;48.722;9.332;2022-11-15T14:28:27;17.40;75.60
43320;DHT22;28914;48.722;9.332;2022-11-15T14:33:46;17.30;75.80
43320;DHT22;28914;48.722;9.332;2022-11-15T14:39:06;17.20;76.10
43320;DHT22;28914;48.722;9.332;2022-11-15T14:44:25;17.00;76.90
43320;DHT22;28914;48.722;9.332;2022-11-15T14:49:44;16.90;76.80
43320;DHT22;28914;48.722;9.332;2022-11-15T14:55:13;16.70;77.20
43320;DHT22;28914;48.722;9.332;2022-11-15T15:00:38;16.60;77.80
43320;DHT22;28914;48.722;9.332;2022-11-15T15:05:57;16.50;77.90
43320;DHT22;28914;48.722;9.332;2022-11-15T15:11:21;16.40;78.20
43320;DHT22;28914;48.722;9.332;2022-11-15T15:16:41;16.30;78.70
43320;DHT22;28914;48.722;9.332;2022-11-15T15:22:01;16.20;79.00
43320;DHT22;28914;48.722;9.332;2022-11-15T15:27:20;16.10;79.40
43320;DHT22;28914;48.722;9.332;2022-11-15T15:32:39;16.00;79.70
43320;DHT22;28914;48.722;9.332;2022-11-15T15:37:58;15.90;80.00
43320;DHT22;28914;48.722;9.332;2022-11-15T15:43:17;15.80;80.60
43320;DHT22;28914;48.722;9.332;2022-11-15T15:48:37;15.60;80.60
43320;DHT22;28914;48.722;9.332;2022-11-15T15:53:58;15.60;81.10
43320;DHT22;28914;48.722;9.332;2022-11-15T15:59:17;15.40;81.20
43320;DHT22;28914;48.722;9.332;2022-11-15T16:04:36;15.30;81.50
43320;DHT22;28914;48.722;9.332;2022-11-15T16:09:56;15.20;81.80
43320;DHT22;28914;48.722;9.332;2022-11-15T16:15:20;15.10;82.00
43320;DHT22;28914;48.722;9.332;2022-11-15T16:20:43;15.00;82.50
43320;DHT22;28914;48.722;9.332;2022-11-15T16:26:14;15.00;82.80
43320;DHT22;28914;48.722;9.332;2022-11-15T16:31:36;14.90;83.20
43320;DHT22;28914;48.722;9.332;2022-11-15T16:36:55;14.80;83.20
43320;DHT22;28914;48.722;9.332;2022-11-15T16:42:14;14.70;83.30
43320;DHT22;28914;48.722;9.332;2022-11-15T16:47:34;14.70;83.60
43320;DHT22;28914;48.722;9.332;2022-11-15T16:52:57;14.60;83.80
43320;DHT22;28914;48.722;9.332;2022-11-15T16:58:17;14.50;84.20
43320;DHT22;28914;48.722;9.332;2022-11-15T17:03:36;14.50;84.50
43320;DHT22;28914;48.722;9.332;2022-11-15T17:08:55;14.50;84.60
43320;DHT22;28914;48.722;9.332;2022-11-15T17:14:15;14.40;84.80
43320;DHT22;28914;48.722;9.332;2022-11-15T17:19:34;14.40;84.90
43320;DHT22;28914;48.722;9.332;2022-11-15T17:24:53;14.40;85.00
43320;DHT22;28914;48.722;9.332;2022-11-15T17:30:13;14.30;85.20
43320;DHT22;28914;48.722;9.332;2022-11-15T17:35:37;14.30;85.30
43320;DHT22;28914;48.722;9.332;2022-11-15T17:41:05;14.30;85.60
43320;DHT22;28914;48.722;9.332;2022-11-15T17:46:26;14.30;85.90
43320;DHT22;28914;48.722;9.332;2022-11-15T17:51:46;14.30;85.80
43320;DHT22;28914;48.722;9.332;2022-11-15T17:57:05;14.20;85.70
43320;DHT22;28914;48.722;9.332;2022-11-15T18:02:25;14.20;85.90
43320;DHT22;28914;48.722;9.332;2022-11-15T18:07:44;14.20;86.00
43320;DHT22;28914;48.722;9.332;2022-11-15T18:13:03;14.20;86.10
43320;DHT22;28914;48.722;9.332;2022-11-15T18:18:22;14.10;86.10
43320;DHT22;28914;48.722;9.332;2022-11-15T18:23:42;14.10;86.30
43320;DHT22;28914;48.722;9.332;2022-11-15T18:29:03;14.10;86.50
43320;DHT22;28914;48.722;9.332;2022-11-15T18:34:24;14.10;87.40
43320;DHT22;28914;48.722;9.332;2022-11-15T18:39:43;14.10;86.70
43320;DHT22;28914;48.722;9.332;2022-11-15T18:45:03;14.10;86.70
43320;DHT22;28914;48.722;9.332;2022-11-15T18:50:22;14.10;86.70
43320;DHT22;28914;48.722;9.332;2022-11-15T18:55:41;14.10;86.90
43320;DHT22;28914;48.722;9.332;2022-11-15T19:01:12;14.10;87.00
43320;DHT22;28914;48.722;9.332;2022-11-15T19:06:31;14.10;87.40
43320;DHT22;28914;48.722;9.332;2022-11-15T19:11:51;14.10;87.10
43320;DHT22;28914;48.722;9.332;2022-11-15T19:17:10;14.10;87.20
43320;DHT22;28914;48.722;9.332;2022-11-15T19:22:29;14.20;87.30
43320;DHT22;28914;48.722;9.332;2022-11-15T19:27:48;14.10;87.50
43320;DHT22;28914;48.722;9.332;2022-11-15T19:33:07;14.10;87.60
43320;DHT22;28914;48.722;9.332;2022-11-15T19:38:29;14.10;87.90
43320;DHT22;28914;48.722;9.332;2022-11-15T19:43:49;14.10;88.00
43320;DHT22;28914;48.722;9.332;2022-11-15T19:49:09;14.10;88.10
43320;DHT22;28914;48.722;9.332;2022-11-15T19:54:28;14.10;88.20
43320;DHT22;28914;48.722;9.332;2022-11-15T19:59:47;14.10;88.30
43320;DHT22;28914;48.722;9.332;2022-11-15T20:05:07;14.10;88.30
43320;DHT22;28914;48.722;9.332;2022-11-15T20:10:26;14.10;88.30
43320;DHT22;28914;48.722;9.332;2022-11-15T20:15:45;14.10;88.20
43320;DHT22;28914;48.722;9.332;2022-11-15T20:21:05;14.10;88.20
43320;DHT22;28914;48.722;9.332;2022-11-15T20:26:24;14.10;88.30
43320;DHT22;28914;48.722;9.332;2022-11-15T20:31:43;14.10;88.30
43320;DHT22;28914;48.722;9.332;2022-11-15T20:37:02;14.10;88.20
43320;DHT22;28914;48.722;9.332;2022-11-15T20:42:22;14.10;88.30
43320;DHT22;28914;48.722;9.332;2022-11-15T20:47:41;14.00;88.40
43320;DHT22;28914;48.722;9.332;2022-11-15T20:53:00;14.00;88.40
43320;DHT22;28914;48.722;9.332;2022-11-15T20:58:19;14.00;88.50
43320;DHT22;28914;48.722;9.332;2022-11-15T21:03:39;14.00;88.70
43320;DHT22;28914;48.722;9.332;2022-11-15T21:08:58;14.00;88.70
43320;DHT22;28914;48.722;9.332;2022-11-15T21:14:37;13.90;88.60
43320;DHT22;28914;48.722;9.332;2022-11-15T21:19:56;13.90;88.70
43320;DHT22;28914;48.722;9.332;2022-11-15T21:25:15;13.90;88.80
43320;DHT22;28914;48.722;9.332;2022-11-15T21:30:34;13.90;88.90
43320;DHT22;28914;48.722;9.332;2022-11-15T21:35:55;13.90;89.00
43320;DHT22;28914;48.722;9.332;2022-11-15T21:41:14;13.90;89.00
43320;DHT22;28914;48.722;9.332;2022-11-15T21:46:33;13.90;89.00
43320;DHT22;28914;48.722;9.332;2022-11-15T21:51:55;13.80;89.10
43320;DHT22;28914;48.722;9.332;2022-11-15T21:57:14;13.80;89.20
43320;DHT22;28914;48.722;9.332;2022-11-15T22:02:33;13.80;89.20
43320;DHT22;28914;48.722;9.332;2022-11-15T22:07:53;13.80;89.30
43320;DHT22;28914;48.722;9.332;2022-11-15T22:13:12;13.80;89.40
43320;DHT22;28914;48.722;9.332;2022-11-15T22:18:31;13.80;89.40
43320;DHT22;28914;48.722;9.332;2022-11-15T22:23:51;13.80;89.50
43320;DHT22;28914;48.722;9.332;2022-11-15T22:29:10;13.80;89.50
43320;DHT22;28914;48.722;9.332;2022-11-15T22:34:29;13.70;89.60
43320;DHT22;28914;48.722;9.332;2022-11-15T22:39:48;13.80;89.70
43320;DHT22;28914;48.722;9.332;2022-11-15T22:45:08;13.80;89.70
43320;DHT22;28914;48.722;9.332;2022-11-15T22:50:27;13.80;89.70
43320;DHT22;28914;48.722;9.332;2022-11-15T22:55:51;13.80;89.80
43320;DHT22;28914;48.722;9.332;2022-11-15T23:01:18;13.80;90.00
43320;DHT22;28914;48.722;9.332;2022-11-15T23:06:37;13.80;90.00
43320;DHT22;28914;48.722;9.332;2022-11-15T23:11:57;13.80;90.00
43320;DHT22;28914;48.722;9.332;2022-11-15T23:17:35;13.80;90.00
43320;DHT22;28914;48.722;9.332;2022-11-15T23:22:54;13.80;90.00
43320;DHT22;28914;48.722;9.332;2022-11-15T23:28:13;13.80;90.00
43320;DHT22;28914;48.722;9.332;2022-11-15T23:33:32;13.80;90.10
43320;DHT22;28914;48.722;9.332;2022-11-15T23:39:10;13.80;90.10
43320;DHT22;28914;48.722;9.332;2022-11-15T23:44:30;13.70;90.20
43320;DHT22;28914;48.722;9.332;2022-11-15T23:49:49;13.70;90.20
43320;DHT22;28914;48.722;9.332;2022-11-15T23:55:09;13.70;90.20
